createdAt,value
2017-09-17T00:00:42.262Z,951.37
2017-09-17T00:01:42.251Z,951.35
2017-09-17T00:02:42.238Z,951.35
2017-09-17T00:03:42.222Z,951.38
2017-09-17T00:04:42.210Z,951.37
2017-09-17T00:05:42.219Z,951.34
2017-09-17T00:06:42.186Z,951.39
2017-09-17T00:07:42.174Z,951.41
2017-09-17T00:08:42.159Z,951.37
2017-09-17T00:09:42.148Z,951.34
2017-09-17T00:10:42.146Z,951.37
2017-09-17T00:11:42.120Z,951.38
2017-09-17T00:12:42.107Z,951.39
2017-09-17T00:13:42.094Z,951.37
2017-09-17T00:14:42.082Z,951.35
2017-09-17T00:15:42.085Z,951.38
2017-09-17T00:16:42.055Z,951.37
2017-09-17T00:17:42.042Z,951.4
2017-09-17T00:18:42.028Z,951.42
2017-09-17T00:19:42.017Z,951.43
2017-09-17T00:20:42.003Z,951.42
2017-09-17T00:21:41.990Z,951.45
2017-09-17T00:22:41.975Z,951.41
2017-09-17T00:23:41.964Z,951.41
2017-09-17T00:24:41.951Z,951.4
2017-09-17T00:25:41.936Z,951.37
2017-09-17T00:26:41.925Z,951.38
2017-09-17T00:27:41.911Z,951.36
2017-09-17T00:28:41.899Z,951.35
2017-09-17T00:29:41.886Z,951.39
2017-09-17T00:30:41.871Z,951.42
2017-09-17T00:31:41.860Z,951.4
2017-09-17T00:32:41.848Z,951.39
2017-09-17T00:33:41.832Z,951.39
2017-09-17T00:34:41.820Z,951.39
2017-09-17T00:35:41.810Z,951.41
2017-09-17T00:36:41.794Z,951.43
2017-09-17T00:37:41.781Z,951.43
2017-09-17T00:38:41.769Z,951.43
2017-09-17T00:39:41.756Z,951.43
2017-09-17T00:40:41.757Z,951.42
2017-09-17T00:41:41.728Z,951.44
2017-09-17T00:42:41.716Z,951.39
2017-09-17T00:43:41.703Z,951.39
2017-09-17T00:44:41.702Z,951.39
2017-09-17T00:45:41.676Z,951.39
2017-09-17T00:46:41.662Z,951.34
2017-09-17T00:47:41.648Z,951.35
2017-09-17T00:48:41.637Z,951.28
2017-09-17T00:49:41.622Z,951.3
2017-09-17T00:50:41.610Z,951.28
2017-09-17T00:51:41.598Z,951.24
2017-09-17T00:52:41.585Z,951.24
2017-09-17T00:53:41.572Z,951.2
2017-09-17T00:54:41.559Z,951.19
2017-09-17T00:55:41.547Z,951.15
2017-09-17T00:56:41.531Z,951.17
2017-09-17T00:57:41.520Z,951.16
2017-09-17T00:58:41.511Z,951.19
2017-09-17T00:59:41.493Z,951.19
2017-09-17T01:00:41.481Z,951.2
2017-09-17T01:01:41.468Z,951.19
2017-09-17T01:02:41.453Z,951.23
2017-09-17T01:03:41.442Z,951.18
2017-09-17T01:04:41.427Z,951.16
2017-09-17T01:05:41.415Z,951.15
2017-09-17T01:06:41.402Z,951.16
2017-09-17T01:07:41.387Z,951.12
2017-09-17T01:08:41.374Z,951.16
2017-09-17T01:09:41.361Z,951.16
2017-09-17T01:10:41.349Z,951.17
2017-09-17T01:11:41.342Z,951.18
2017-09-17T01:12:41.323Z,951.18
2017-09-17T01:13:41.308Z,951.19
2017-09-17T01:14:41.295Z,951.19
2017-09-17T01:15:41.283Z,951.2
2017-09-17T01:16:44.422Z,951.21
2017-09-17T01:17:41.256Z,951.25
2017-09-17T01:18:41.244Z,951.24
2017-09-17T01:19:41.230Z,951.27
2017-09-17T01:20:41.216Z,951.27
2017-09-17T01:21:41.201Z,951.26
2017-09-17T01:22:41.191Z,951.25
2017-09-17T01:23:41.177Z,951.25
2017-09-17T01:24:41.161Z,951.29
2017-09-17T01:25:41.150Z,951.26
2017-09-17T01:26:41.137Z,951.25
2017-09-17T01:27:41.122Z,951.17
2017-09-17T01:28:41.119Z,951.18
2017-09-17T01:29:41.096Z,951.21
2017-09-17T01:30:41.086Z,951.18
2017-09-17T01:31:41.070Z,951.15
2017-09-17T01:32:41.055Z,951.15
2017-09-17T01:33:41.043Z,951.13
2017-09-17T01:34:41.029Z,951.17
2017-09-17T01:35:41.019Z,951.15
2017-09-17T01:36:41.002Z,951.16
2017-09-17T01:37:40.990Z,951.15
2017-09-17T01:38:40.974Z,951.19
2017-09-17T01:39:40.962Z,951.15
2017-09-17T01:40:40.952Z,951.19
2017-09-17T01:41:40.935Z,951.13
2017-09-17T01:42:40.922Z,951.17
2017-09-17T01:43:40.910Z,951.19
2017-09-17T01:44:40.896Z,951.19
2017-09-17T01:45:40.883Z,951.19
2017-09-17T01:46:40.885Z,951.18
2017-09-17T01:47:40.857Z,951.24
2017-09-17T01:48:40.841Z,951.15
2017-09-17T01:49:40.846Z,951.19
2017-09-17T01:50:40.814Z,951.2
2017-09-17T01:51:40.812Z,951.23
2017-09-17T01:52:40.790Z,951.22
2017-09-17T01:53:40.774Z,951.2
2017-09-17T01:54:40.760Z,951.25
2017-09-17T01:55:40.747Z,951.25
2017-09-17T01:56:40.735Z,951.26
2017-09-17T01:57:40.721Z,951.25
2017-09-17T01:58:40.711Z,951.2
2017-09-17T01:59:40.694Z,951.17
2017-09-17T02:00:40.681Z,951.23
2017-09-17T02:01:40.667Z,951.23
2017-09-17T02:02:40.654Z,951.23
2017-09-17T02:03:40.639Z,951.23
2017-09-17T02:04:40.628Z,951.23
2017-09-17T02:05:40.613Z,951.27
2017-09-17T02:06:40.600Z,951.29
2017-09-17T02:07:40.600Z,951.29
2017-09-17T02:08:40.577Z,951.34
2017-09-17T02:09:40.563Z,951.34
2017-09-17T02:10:40.563Z,951.39
2017-09-17T02:11:40.531Z,951.35
2017-09-17T02:12:40.536Z,951.32
2017-09-17T02:13:40.504Z,951.32
2017-09-17T02:14:40.492Z,951.37
2017-09-17T02:15:40.493Z,951.37
2017-09-17T02:16:40.465Z,951.38
2017-09-17T02:17:40.462Z,951.36
2017-09-17T02:18:40.438Z,951.38
2017-09-17T02:19:40.423Z,951.39
2017-09-17T02:20:40.410Z,951.42
2017-09-17T02:21:40.397Z,951.43
2017-09-17T02:22:40.383Z,951.47
2017-09-17T02:23:40.370Z,951.51
2017-09-17T02:24:40.357Z,951.5
2017-09-17T02:25:40.346Z,951.51
2017-09-17T02:26:40.331Z,951.49
2017-09-17T02:27:40.314Z,951.5
2017-09-17T02:28:40.303Z,951.47
2017-09-17T02:29:40.290Z,951.48
2017-09-17T02:30:40.275Z,951.49
2017-09-17T02:31:40.263Z,951.51
2017-09-17T02:32:40.250Z,951.49
2017-09-17T02:33:40.235Z,951.52
2017-09-17T02:34:40.223Z,951.51
2017-09-17T02:35:40.208Z,951.52
2017-09-17T02:36:40.195Z,951.53
2017-09-17T02:37:40.181Z,951.56
2017-09-17T02:38:40.167Z,951.5
2017-09-17T02:39:40.155Z,951.53
2017-09-17T02:40:40.140Z,951.53
2017-09-17T02:41:40.136Z,951.54
2017-09-17T02:42:40.113Z,951.5
2017-09-17T02:43:40.113Z,951.52
2017-09-17T02:44:40.086Z,951.5
2017-09-17T02:45:40.081Z,951.48
2017-09-17T02:46:40.060Z,951.44
2017-09-17T02:47:40.046Z,951.49
2017-09-17T02:48:40.033Z,951.49
2017-09-17T02:49:40.019Z,951.44
2017-09-17T02:50:40.006Z,951.44
2017-09-17T02:51:39.993Z,951.39
2017-09-17T02:52:40.001Z,951.41
2017-09-17T02:53:39.965Z,951.39
2017-09-17T02:54:39.950Z,951.38
2017-09-17T02:55:39.936Z,951.35
2017-09-17T02:56:39.924Z,951.38
2017-09-17T02:57:39.931Z,951.39
2017-09-17T02:58:39.896Z,951.37
2017-09-17T02:59:39.883Z,951.34
2017-09-17T03:00:39.869Z,951.36
2017-09-17T03:01:39.855Z,951.35
2017-09-17T03:02:39.841Z,951.33
2017-09-17T03:03:39.827Z,951.31
2017-09-17T03:04:39.814Z,951.32
2017-09-17T03:05:39.802Z,951.28
2017-09-17T03:06:39.788Z,951.33
2017-09-17T03:07:39.773Z,951.33
2017-09-17T03:08:39.766Z,951.33
2017-09-17T03:09:39.759Z,951.31
2017-09-17T03:10:39.732Z,951.32
2017-09-17T03:11:39.718Z,951.34
2017-09-17T03:12:39.705Z,951.32
2017-09-17T03:13:39.690Z,951.32
2017-09-17T03:14:39.678Z,951.28
2017-09-17T03:15:39.664Z,951.27
2017-09-17T03:16:39.651Z,951.27
2017-09-17T03:17:39.656Z,951.27
2017-09-17T03:18:39.625Z,951.24
2017-09-17T03:19:39.610Z,951.22
2017-09-17T03:20:39.597Z,951.26
2017-09-17T03:21:39.582Z,951.21
2017-09-17T03:22:39.567Z,951.2
2017-09-17T03:23:39.556Z,951.21
2017-09-17T03:24:39.539Z,951.22
2017-09-17T03:25:39.529Z,951.26
2017-09-17T03:26:39.514Z,951.23
2017-09-17T03:27:39.499Z,951.2
2017-09-17T03:28:39.484Z,951.24
2017-09-17T03:29:39.471Z,951.25
2017-09-17T03:30:39.458Z,951.28
2017-09-17T03:31:39.444Z,951.23
2017-09-17T03:32:39.430Z,951.21
2017-09-17T03:33:39.416Z,951.24
2017-09-17T03:34:39.404Z,951.25
2017-09-17T03:35:39.390Z,951.25
2017-09-17T03:36:39.374Z,951.25
2017-09-17T03:37:39.362Z,951.23
2017-09-17T03:38:39.348Z,951.23
2017-09-17T03:39:39.334Z,951.22
2017-09-17T03:40:39.321Z,951.21
2017-09-17T03:41:39.328Z,951.16
2017-09-17T03:42:39.294Z,951.21
2017-09-17T03:43:39.279Z,951.18
2017-09-17T03:44:39.274Z,951.21
2017-09-17T03:45:39.252Z,951.21
2017-09-17T03:46:39.238Z,951.24
2017-09-17T03:47:39.223Z,951.23
2017-09-17T03:48:39.210Z,951.22
2017-09-17T03:49:39.196Z,951.21
2017-09-17T03:50:39.182Z,951.26
2017-09-17T03:51:39.191Z,951.23
2017-09-17T03:52:39.155Z,951.26
2017-09-17T03:53:39.142Z,951.26
2017-09-17T03:54:39.128Z,951.24
2017-09-17T03:55:39.121Z,951.22
2017-09-17T03:56:39.107Z,951.24
2017-09-17T03:57:39.086Z,951.2
2017-09-17T03:58:39.074Z,951.2
2017-09-17T03:59:39.091Z,951.23
2017-09-17T04:00:39.045Z,951.25
2017-09-17T04:01:39.032Z,951.22
2017-09-17T04:02:39.018Z,951.24
2017-09-17T04:03:39.025Z,951.28
2017-09-17T04:04:38.991Z,951.21
2017-09-17T04:05:38.979Z,951.24
2017-09-17T04:06:38.964Z,951.24
2017-09-17T04:07:38.952Z,951.25
2017-09-17T04:08:38.936Z,951.21
2017-09-17T04:09:38.924Z,951.23
2017-09-17T04:10:38.928Z,951.25
2017-09-17T04:11:38.896Z,951.24
2017-09-17T04:12:38.883Z,951.23
2017-09-17T04:13:38.869Z,951.26
2017-09-17T04:14:38.860Z,951.23
2017-09-17T04:15:38.842Z,951.25
2017-09-17T04:16:38.828Z,951.28
2017-09-17T04:17:38.815Z,951.28
2017-09-17T04:18:38.802Z,951.31
2017-09-17T04:19:38.788Z,951.33
2017-09-17T04:20:38.774Z,951.31
2017-09-17T04:21:38.758Z,951.34
2017-09-17T04:22:38.746Z,951.32
2017-09-17T04:23:38.732Z,951.34
2017-09-17T04:24:38.719Z,951.35
2017-09-17T04:25:38.705Z,951.36
2017-09-17T04:26:38.691Z,951.36
2017-09-17T04:27:38.696Z,951.33
2017-09-17T04:28:38.664Z,951.38
2017-09-17T04:29:38.651Z,951.38
2017-09-17T04:30:38.640Z,951.38
2017-09-17T04:31:38.624Z,951.36
2017-09-17T04:32:38.610Z,951.38
2017-09-17T04:33:38.621Z,951.37
2017-09-17T04:34:38.584Z,951.4
2017-09-17T04:35:38.569Z,951.37
2017-09-17T04:36:38.556Z,951.31
2017-09-17T04:37:38.542Z,951.32
2017-09-17T04:38:38.531Z,951.34
2017-09-17T04:39:38.517Z,951.32
2017-09-17T04:40:38.503Z,951.31
2017-09-17T04:41:38.488Z,951.28
2017-09-17T04:42:38.484Z,951.29
2017-09-17T04:43:38.461Z,951.27
2017-09-17T04:44:38.449Z,951.31
2017-09-17T04:45:38.448Z,951.3
2017-09-17T04:46:38.446Z,951.29
2017-09-17T04:47:38.409Z,951.27
2017-09-17T04:48:38.394Z,951.28
2017-09-17T04:49:38.401Z,951.31
2017-09-17T04:50:38.368Z,951.28
2017-09-17T04:51:38.354Z,951.29
2017-09-17T04:52:38.345Z,951.3
2017-09-17T04:53:38.328Z,951.31
2017-09-17T04:54:38.315Z,951.28
2017-09-17T04:55:38.302Z,951.3
2017-09-17T04:56:38.287Z,951.3
2017-09-17T04:57:38.282Z,951.29
2017-09-17T04:58:38.261Z,951.29
2017-09-17T04:59:38.249Z,951.35
2017-09-17T05:00:38.254Z,951.32
2017-09-17T05:01:38.220Z,951.34
2017-09-17T05:02:38.224Z,951.32
2017-09-17T05:03:38.194Z,951.32
2017-09-17T05:04:38.181Z,951.38
2017-09-17T05:05:38.168Z,951.35
2017-09-17T05:06:38.155Z,951.35
2017-09-17T05:07:38.157Z,951.43
2017-09-17T05:08:38.129Z,951.42
2017-09-17T05:09:38.115Z,951.38
2017-09-17T05:10:38.102Z,951.4
2017-09-17T05:11:38.093Z,951.42
2017-09-17T05:12:38.076Z,951.42
2017-09-17T05:13:38.063Z,951.4
2017-09-17T05:14:38.052Z,951.4
2017-09-17T05:15:38.041Z,951.41
2017-09-17T05:16:38.024Z,951.39
2017-09-17T05:17:38.012Z,951.46
2017-09-17T05:18:37.998Z,951.4
2017-09-17T05:19:37.984Z,951.43
2017-09-17T05:20:37.972Z,951.43
2017-09-17T05:21:37.959Z,951.44
2017-09-17T05:22:37.946Z,951.42
2017-09-17T05:23:37.941Z,951.46
2017-09-17T05:24:37.921Z,951.45
2017-09-17T05:25:37.919Z,951.48
2017-09-17T05:26:37.893Z,951.5
2017-09-17T05:27:37.883Z,951.55
2017-09-17T05:28:37.869Z,951.5
2017-09-17T05:29:37.855Z,951.46
2017-09-17T05:30:37.843Z,951.49
2017-09-17T05:31:37.829Z,951.48
2017-09-17T05:32:37.815Z,951.48
2017-09-17T05:33:37.802Z,951.48
2017-09-17T05:34:37.795Z,951.47
2017-09-17T05:35:37.779Z,951.44
2017-09-17T05:36:37.765Z,951.47
2017-09-17T05:37:37.752Z,951.45
2017-09-17T05:38:37.741Z,951.49
2017-09-17T05:39:37.746Z,951.47
2017-09-17T05:40:37.716Z,951.52
2017-09-17T05:41:37.703Z,951.44
2017-09-17T05:42:37.691Z,951.51
2017-09-17T05:43:37.679Z,951.5
2017-09-17T05:44:37.667Z,951.51
2017-09-17T05:45:37.679Z,951.49
2017-09-17T05:46:37.640Z,951.48
2017-09-17T05:47:37.627Z,951.51
2017-09-17T05:48:37.614Z,951.47
2017-09-17T05:49:37.603Z,951.5
2017-09-17T05:50:37.591Z,951.51
2017-09-17T05:51:37.577Z,951.51
2017-09-17T05:52:37.565Z,951.54
2017-09-17T05:53:37.553Z,951.53
2017-09-17T05:54:37.541Z,951.53
2017-09-17T05:55:37.538Z,951.55
2017-09-17T05:56:37.516Z,951.51
2017-09-17T05:57:37.505Z,951.55
2017-09-17T05:58:37.493Z,951.58
2017-09-17T05:59:37.479Z,951.6
2017-09-17T06:00:37.467Z,951.58
2017-09-17T06:01:37.456Z,951.59
2017-09-17T06:02:37.443Z,951.6
2017-09-17T06:03:37.431Z,951.58
2017-09-17T06:04:37.420Z,951.59
2017-09-17T06:05:37.405Z,951.6
2017-09-17T06:06:37.396Z,951.6
2017-09-17T06:07:37.384Z,951.57
2017-09-17T06:08:37.422Z,951.62
2017-09-17T06:09:37.359Z,951.63
2017-09-17T06:10:37.348Z,951.64
2017-09-17T06:11:37.341Z,951.67
2017-09-17T06:12:37.325Z,951.65
2017-09-17T06:13:37.313Z,951.68
2017-09-17T06:14:37.300Z,951.68
2017-09-17T06:15:37.291Z,951.71
2017-09-17T06:16:37.279Z,951.66
2017-09-17T06:17:37.265Z,951.66
2017-09-17T06:18:37.254Z,951.67
2017-09-17T06:19:37.243Z,951.61
2017-09-17T06:20:37.231Z,951.65
2017-09-17T06:21:37.218Z,951.67
2017-09-17T06:22:37.208Z,951.7
2017-09-17T06:23:37.195Z,951.72
2017-09-17T06:24:37.185Z,951.73
2017-09-17T06:25:37.173Z,951.72
2017-09-17T06:26:37.162Z,951.75
2017-09-17T06:27:37.169Z,951.74
2017-09-17T06:28:37.137Z,951.75
2017-09-17T06:29:37.127Z,951.73
2017-09-17T06:30:37.117Z,951.74
2017-09-17T06:31:37.103Z,951.75
2017-09-17T06:32:37.093Z,951.75
2017-09-17T06:33:37.083Z,951.75
2017-09-17T06:34:37.072Z,951.74
2017-09-17T06:35:37.060Z,951.79
2017-09-17T06:36:37.050Z,951.78
2017-09-17T06:37:37.038Z,951.78
2017-09-17T06:38:37.027Z,951.8
2017-09-17T06:39:37.017Z,951.71
2017-09-17T06:40:37.005Z,951.72
2017-09-17T06:41:36.995Z,951.73
2017-09-17T06:42:37.186Z,951.74
2017-09-17T06:43:36.987Z,951.71
2017-09-17T06:44:36.964Z,951.74
2017-09-17T06:45:36.972Z,951.78
2017-09-17T06:46:36.941Z,951.73
2017-09-17T06:47:36.930Z,951.79
2017-09-17T06:48:36.921Z,951.78
2017-09-17T06:49:36.910Z,951.74
2017-09-17T06:50:36.900Z,951.75
2017-09-17T06:51:36.887Z,951.79
2017-09-17T06:52:36.879Z,951.77
2017-09-17T06:53:36.868Z,951.82
2017-09-17T06:54:36.859Z,951.78
2017-09-17T06:55:36.848Z,951.8
2017-09-17T06:56:36.837Z,951.85
2017-09-17T06:57:36.828Z,951.82
2017-09-17T06:58:36.837Z,951.81
2017-09-17T06:59:36.808Z,951.86
2017-09-17T07:00:36.797Z,951.8
2017-09-17T07:01:36.787Z,951.83
2017-09-17T07:02:36.800Z,951.8
2017-09-17T07:03:36.769Z,951.82
2017-09-17T07:04:36.778Z,951.83
2017-09-17T07:05:36.759Z,951.85
2017-09-17T07:06:36.740Z,951.81
2017-09-17T07:07:36.729Z,951.85
2017-09-17T07:08:36.719Z,951.85
2017-09-17T07:09:36.710Z,951.87
2017-09-17T07:10:36.703Z,951.83
2017-09-17T07:11:36.692Z,951.84
2017-09-17T07:12:36.681Z,951.84
2017-09-17T07:13:36.673Z,951.84
2017-09-17T07:14:36.665Z,951.85
2017-09-17T07:15:36.656Z,951.79
2017-09-17T07:16:36.648Z,951.84
2017-09-17T07:17:36.638Z,951.83
2017-09-17T07:18:36.650Z,951.85
2017-09-17T07:19:36.622Z,951.81
2017-09-17T07:20:36.612Z,951.84
2017-09-17T07:21:36.604Z,951.85
2017-09-17T07:22:36.595Z,951.88
2017-09-17T07:23:36.587Z,951.88
2017-09-17T07:24:36.580Z,951.86
2017-09-17T07:25:36.571Z,951.88
2017-09-17T07:26:36.562Z,951.93
2017-09-17T07:27:36.557Z,951.91
2017-09-17T07:28:36.551Z,951.92
2017-09-17T07:29:36.538Z,951.9
2017-09-17T07:30:36.531Z,951.92
2017-09-17T07:31:36.532Z,951.9
2017-09-17T07:32:36.516Z,951.91
2017-09-17T07:33:36.510Z,951.92
2017-09-17T07:34:36.518Z,951.95
2017-09-17T07:35:36.493Z,951.95
2017-09-17T07:36:36.486Z,951.95
2017-09-17T07:37:36.478Z,951.96
2017-09-17T07:38:36.472Z,951.91
2017-09-17T07:39:36.468Z,951.9
2017-09-17T07:40:36.474Z,951.91
2017-09-17T07:41:36.476Z,951.91
2017-09-17T07:42:36.442Z,951.96
2017-09-17T07:43:36.435Z,951.91
2017-09-17T07:44:36.427Z,951.98
2017-09-17T07:45:36.419Z,951.96
2017-09-17T07:46:36.412Z,951.95
2017-09-17T07:47:36.404Z,951.97
2017-09-17T07:48:36.412Z,952.01
2017-09-17T07:49:36.390Z,952.01
2017-09-17T07:50:36.398Z,952
2017-09-17T07:51:36.379Z,951.99
2017-09-17T07:52:36.369Z,952.01
2017-09-17T07:53:36.361Z,952.01
2017-09-17T07:54:36.354Z,951.97
2017-09-17T07:55:36.369Z,951.99
2017-09-17T07:56:36.339Z,951.97
2017-09-17T07:57:36.332Z,951.97
2017-09-17T07:58:36.324Z,951.97
2017-09-17T07:59:36.318Z,951.99
2017-09-17T08:00:36.312Z,951.96
2017-09-17T08:01:36.304Z,951.97
2017-09-17T08:02:36.303Z,951.93
2017-09-17T08:03:36.305Z,951.95
2017-09-17T08:04:36.283Z,951.93
2017-09-17T08:05:36.276Z,951.96
2017-09-17T08:06:36.267Z,951.98
2017-09-17T08:07:36.261Z,952
2017-09-17T08:08:36.254Z,951.94
2017-09-17T08:09:36.246Z,951.98
2017-09-17T08:10:36.246Z,951.97
2017-09-17T08:11:36.232Z,951.95
2017-09-17T08:12:36.226Z,951.94
2017-09-17T08:13:36.217Z,951.97
2017-09-17T08:14:36.211Z,951.91
2017-09-17T08:15:36.205Z,951.92
2017-09-17T08:16:36.198Z,951.88
2017-09-17T08:17:36.196Z,951.87
2017-09-17T08:18:36.185Z,951.82
2017-09-17T08:19:36.180Z,951.83
2017-09-17T08:20:36.171Z,951.84
2017-09-17T08:21:36.164Z,951.85
2017-09-17T08:22:36.159Z,951.82
2017-09-17T08:23:36.153Z,951.84
2017-09-17T08:24:36.146Z,951.81
2017-09-17T08:25:36.138Z,951.82
2017-09-17T08:26:36.133Z,951.77
2017-09-17T08:27:36.126Z,951.79
2017-09-17T08:28:36.119Z,951.82
2017-09-17T08:29:36.113Z,951.82
2017-09-17T08:30:36.108Z,951.8
2017-09-17T08:31:36.109Z,951.76
2017-09-17T08:32:36.095Z,951.8
2017-09-17T08:33:36.088Z,951.79
2017-09-17T08:34:36.094Z,951.79
2017-09-17T08:35:36.075Z,951.77
2017-09-17T08:36:36.069Z,951.78
2017-09-17T08:37:36.063Z,951.78
2017-09-17T08:38:36.057Z,951.78
2017-09-17T08:39:36.051Z,951.79
2017-09-17T08:40:36.045Z,951.8
2017-09-17T08:41:36.039Z,951.76
2017-09-17T08:42:36.033Z,951.81
2017-09-17T08:43:36.026Z,951.79
2017-09-17T08:44:36.021Z,951.81
2017-09-17T08:45:36.018Z,951.81
2017-09-17T08:46:36.009Z,951.79
2017-09-17T08:47:36.001Z,951.79
2017-09-17T08:48:35.997Z,951.79
2017-09-17T08:49:35.992Z,951.8
2017-09-17T08:50:35.986Z,951.78
2017-09-17T08:51:35.980Z,951.79
2017-09-17T08:52:35.975Z,951.8
2017-09-17T08:53:35.968Z,951.85
2017-09-17T08:54:35.963Z,951.8
2017-09-17T08:55:35.966Z,951.81
2017-09-17T08:56:35.950Z,951.82
2017-09-17T08:57:35.945Z,951.84
2017-09-17T08:58:35.939Z,951.86
2017-09-17T08:59:35.933Z,951.85
2017-09-17T09:00:35.925Z,951.87
2017-09-17T09:01:35.921Z,951.83
2017-09-17T09:02:35.916Z,951.82
2017-09-17T09:03:35.909Z,951.78
2017-09-17T09:04:35.903Z,951.83
2017-09-17T09:05:35.896Z,951.77
2017-09-17T09:06:35.896Z,951.79
2017-09-17T09:07:35.922Z,951.79
2017-09-17T09:08:35.880Z,951.76
2017-09-17T09:09:35.876Z,951.78
2017-09-17T09:10:35.867Z,951.75
2017-09-17T09:11:35.863Z,951.76
2017-09-17T09:12:35.857Z,951.77
2017-09-17T09:13:35.852Z,951.74
2017-09-17T09:14:35.847Z,951.73
2017-09-17T09:15:35.840Z,951.78
2017-09-17T09:16:35.835Z,951.78
2017-09-17T09:17:35.828Z,951.79
2017-09-17T09:18:35.826Z,951.79
2017-09-17T09:19:35.824Z,951.8
2017-09-17T09:20:35.815Z,951.76
2017-09-17T09:21:35.806Z,951.78
2017-09-17T09:22:35.798Z,951.76
2017-09-17T09:23:35.792Z,951.78
2017-09-17T09:24:35.786Z,951.72
2017-09-17T09:25:35.781Z,951.75
2017-09-17T09:26:35.774Z,951.73
2017-09-17T09:27:35.770Z,951.73
2017-09-17T09:28:35.763Z,951.7
2017-09-17T09:29:35.761Z,951.68
2017-09-17T09:30:35.750Z,951.68
2017-09-17T09:31:35.743Z,951.69
2017-09-17T09:32:35.738Z,951.64
2017-09-17T09:33:35.733Z,951.67
2017-09-17T09:34:35.726Z,951.66
2017-09-17T09:35:35.728Z,951.63
2017-09-17T09:36:35.715Z,951.66
2017-09-17T09:37:35.707Z,951.66
2017-09-17T09:38:35.701Z,951.66
2017-09-17T09:39:35.695Z,951.62
2017-09-17T09:40:35.689Z,951.64
2017-09-17T09:41:35.682Z,951.63
2017-09-17T09:42:35.675Z,951.65
2017-09-17T09:43:35.670Z,951.65
2017-09-17T09:44:35.663Z,951.63
2017-09-17T09:45:35.656Z,951.65
2017-09-17T09:46:35.651Z,951.59
2017-09-17T09:47:35.646Z,951.6
2017-09-17T09:48:35.636Z,951.6
2017-09-17T09:49:35.632Z,951.61
2017-09-17T09:50:35.772Z,951.64
2017-09-17T09:51:35.624Z,951.59
2017-09-17T09:52:35.611Z,951.59
2017-09-17T09:53:35.604Z,951.59
2017-09-17T09:54:35.598Z,951.54
2017-09-17T09:55:35.589Z,951.55
2017-09-17T09:56:35.583Z,951.54
2017-09-17T09:57:35.580Z,951.5
2017-09-17T09:58:35.570Z,951.48
2017-09-17T09:59:35.564Z,951.51
2017-09-17T10:00:35.557Z,951.49
2017-09-17T10:01:35.550Z,951.47
2017-09-17T10:02:35.543Z,951.48
2017-09-17T10:03:35.535Z,951.47
2017-09-17T10:04:35.529Z,951.5
2017-09-17T10:05:35.522Z,951.46
2017-09-17T10:06:35.515Z,951.46
2017-09-17T10:07:35.530Z,951.45
2017-09-17T10:08:35.501Z,951.43
2017-09-17T10:09:35.494Z,951.42
2017-09-17T10:10:35.486Z,951.47
2017-09-17T10:11:35.481Z,951.44
2017-09-17T10:12:35.492Z,951.47
2017-09-17T10:13:35.467Z,951.41
2017-09-17T10:14:35.460Z,951.36
2017-09-17T10:15:35.457Z,951.37
2017-09-17T10:16:35.446Z,951.36
2017-09-17T10:17:35.439Z,951.35
2017-09-17T10:18:35.432Z,951.35
2017-09-17T10:19:35.426Z,951.32
2017-09-17T10:20:35.418Z,951.36
2017-09-17T10:21:35.410Z,951.29
2017-09-17T10:22:35.403Z,951.28
2017-09-17T10:23:35.398Z,951.28
2017-09-17T10:24:35.391Z,951.23
2017-09-17T10:25:35.384Z,951.3
2017-09-17T10:26:35.378Z,951.24
2017-09-17T10:27:35.370Z,951.25
2017-09-17T10:28:35.364Z,951.22
2017-09-17T10:29:35.358Z,951.21
2017-09-17T10:30:35.349Z,951.21
2017-09-17T10:31:35.342Z,951.21
2017-09-17T10:32:35.336Z,951.18
2017-09-17T10:33:35.328Z,951.2
2017-09-17T10:34:35.342Z,951.17
2017-09-17T10:35:35.322Z,951.16
2017-09-17T10:36:35.311Z,951.2
2017-09-17T10:37:35.306Z,951.19
2017-09-17T10:38:35.299Z,951.18
2017-09-17T10:39:35.309Z,951.17
2017-09-17T10:40:35.283Z,951.14
2017-09-17T10:41:35.277Z,951.14
2017-09-17T10:42:35.271Z,951.16
2017-09-17T10:43:35.264Z,951.13
2017-09-17T10:44:35.259Z,951.14
2017-09-17T10:45:35.253Z,951.1
2017-09-17T10:46:35.244Z,951.06
2017-09-17T10:47:35.242Z,951.07
2017-09-17T10:48:35.233Z,951.06
2017-09-17T10:49:35.240Z,951.04
2017-09-17T10:50:35.221Z,951.04
2017-09-17T10:51:35.216Z,951.05
2017-09-17T10:52:35.209Z,951.05
2017-09-17T10:53:35.203Z,951.03
2017-09-17T10:54:35.201Z,951.02
2017-09-17T10:55:35.192Z,951.02
2017-09-17T10:56:35.187Z,951.02
2017-09-17T10:57:35.181Z,951.05
2017-09-17T10:58:35.175Z,951.03
2017-09-17T10:59:35.172Z,951.02
2017-09-17T11:00:35.162Z,951.02
2017-09-17T11:01:35.158Z,951
2017-09-17T11:02:35.151Z,951.01
2017-09-17T11:03:35.154Z,950.98
2017-09-17T11:04:35.164Z,950.97
2017-09-17T11:05:35.134Z,950.94
2017-09-17T11:06:35.150Z,950.96
2017-09-17T11:07:35.123Z,950.94
2017-09-17T11:08:35.116Z,950.88
2017-09-17T11:09:35.111Z,950.86
2017-09-17T11:10:35.106Z,950.82
2017-09-17T11:11:35.101Z,950.87
2017-09-17T11:12:35.095Z,950.82
2017-09-17T11:13:35.101Z,950.82
2017-09-17T11:14:35.084Z,950.84
2017-09-17T11:15:35.079Z,950.78
2017-09-17T11:16:35.074Z,950.76
2017-09-17T11:17:35.069Z,950.74
2017-09-17T11:18:35.064Z,950.76
2017-09-17T11:19:35.057Z,950.77
2017-09-17T11:20:35.054Z,950.78
2017-09-17T11:21:35.060Z,950.77
2017-09-17T11:22:35.041Z,950.76
2017-09-17T11:23:35.035Z,950.77
2017-09-17T11:24:35.030Z,950.75
2017-09-17T11:25:35.026Z,950.72
2017-09-17T11:26:35.022Z,950.73
2017-09-17T11:27:35.014Z,950.77
2017-09-17T11:28:35.009Z,950.72
2017-09-17T11:29:35.004Z,950.72
2017-09-17T11:30:34.998Z,950.74
2017-09-17T11:31:35.006Z,950.75
2017-09-17T11:32:34.990Z,950.77
2017-09-17T11:33:34.985Z,950.73
2017-09-17T11:34:34.978Z,950.72
2017-09-17T11:35:34.974Z,950.74
2017-09-17T11:36:34.969Z,950.72
2017-09-17T11:37:34.965Z,950.74
2017-09-17T11:38:34.958Z,950.75
2017-09-17T11:39:34.954Z,950.68
2017-09-17T11:40:34.966Z,950.69
2017-09-17T11:41:34.943Z,950.67
2017-09-17T11:42:34.942Z,950.67
2017-09-17T11:43:34.944Z,950.66
2017-09-17T11:44:34.931Z,950.66
2017-09-17T11:45:34.925Z,950.68
2017-09-17T11:46:34.934Z,950.63
2017-09-17T11:47:34.916Z,950.63
2017-09-17T11:48:34.911Z,950.63
2017-09-17T11:49:34.904Z,950.62
2017-09-17T11:50:34.901Z,950.66
2017-09-17T11:51:34.897Z,950.67
2017-09-17T11:52:34.891Z,950.64
2017-09-17T11:53:34.888Z,950.63
2017-09-17T11:54:34.885Z,950.62
2017-09-17T11:55:34.879Z,950.65
2017-09-17T11:56:34.888Z,950.61
2017-09-17T11:57:34.868Z,950.61
2017-09-17T11:58:34.864Z,950.62
2017-09-17T11:59:34.878Z,950.64
2017-09-17T12:00:34.855Z,950.61
2017-09-17T12:01:34.854Z,950.6
2017-09-17T12:02:34.845Z,950.61
2017-09-17T12:03:34.841Z,950.59
2017-09-17T12:04:34.835Z,950.63
2017-09-17T12:05:34.831Z,950.61
2017-09-17T12:06:34.827Z,950.61
2017-09-17T12:07:34.822Z,950.61
2017-09-17T12:08:34.818Z,950.61
2017-09-17T12:09:34.826Z,950.64
2017-09-17T12:10:34.809Z,950.62
2017-09-17T12:11:34.805Z,950.63
2017-09-17T12:12:34.799Z,950.63
2017-09-17T12:13:34.796Z,950.62
2017-09-17T12:14:34.797Z,950.63
2017-09-17T12:15:34.788Z,950.58
2017-09-17T12:16:34.791Z,950.61
2017-09-17T12:17:34.778Z,950.6
2017-09-17T12:18:34.773Z,950.57
2017-09-17T12:19:34.769Z,950.61
2017-09-17T12:20:34.765Z,950.61
2017-09-17T12:21:34.759Z,950.54
2017-09-17T12:22:34.756Z,950.59
2017-09-17T12:23:34.751Z,950.55
2017-09-17T12:24:34.751Z,950.55
2017-09-17T12:25:34.743Z,950.53
2017-09-17T12:26:34.740Z,950.54
2017-09-17T12:27:34.736Z,950.49
2017-09-17T12:28:34.733Z,950.53
2017-09-17T12:29:34.729Z,950.53
2017-09-17T12:30:34.725Z,950.54